sensor_id;sensor_type;location;lat;lon;timestamp;temperature;humidity
7472;DHT22;3777;48.722;8.110;2023-11-21T00:01:25;10.90;99.90
7472;DHT22;3777;48.722;8.110;2023-11-21T00:03:53;11.00;99.90
7472;DHT22;3777;48.722;8.110;2023-11-21T00:06:21;11.00;99.90
7472;DHT22;3777;48.722;8.110;2023-11-21T00:08:48;11.10;99.90
7472;DHT22;3777;48.722;8.110;2023-11-21T00:11:15;11.10;99.90
7472;DHT22;3777;48.722;8.110;2023-11-21T00:13:42;11.20;99.90
7472;DHT22;3777;48.722;8.110;2023-11-21T00:16:09;11.20;99.90
7472;DHT22;3777;48.722;8.110;2023-11-21T00:18:36;11.20;99.90
7472;DHT22;3777;48.722;8.110;2023-11-21T00:21:05;11.10;99.90
7472;DHT22;3777;48.722;8.110;2023-11-21T00:23:32;11.00;99.90
7472;DHT22;3777;48.722;8.110;2023-11-21T00:25:59;10.90;99.90
7472;DHT22;3777;48.722;8.110;2023-11-21T00:28:26;10.80;99.90
7472;DHT22;3777;48.722;8.110;2023-11-21T00:30:53;10.80;99.90
7472;DHT22;3777;48.722;8.110;2023-11-21T00:33:20;10.80;99.90
7472;DHT22;3777;48.722;8.110;2023-11-21T00:35:47;10.70;99.90
7472;DHT22;3777;48.722;8.110;2023-11-21T00:38:15;10.70;99.90
7472;DHT22;3777;48.722;8.110;2023-11-21T00:40:45;10.70;99.90
7472;DHT22;3777;48.722;8.110;2023-11-21T00:43:12;10.60;99.90
7472;DHT22;3777;48.722;8.110;2023-11-21T00:45:39;10.60;99.90
7472;DHT22;3777;48.722;8.110;2023-11-21T00:48:06;10.60;99.90
7472;DHT22;3777;48.722;8.110;2023-11-21T00:50:33;10.70;99.90
7472;DHT22;3777;48.722;8.110;2023-11-21T00:53:00;10.70;99.90
7472;DHT22;3777;48.722;8.110;2023-11-21T00:55:29;10.80;99.90
7472;DHT22;3777;48.722;8.110;2023-11-21T00:57:57;10.80;99.90
7472;DHT22;3777;48.722;8.110;2023-11-21T01:00:24;10.90;99.90
7472;DHT22;3777;48.722;8.110;2023-11-21T01:02:51;10.90;99.90
7472;DHT22;3777;48.722;8.110;2023-11-21T01:05:18;10.90;99.90
7472;DHT22;3777;48.722;8.110;2023-11-21T01:07:45;10.80;99.90
7472;DHT22;3777;48.722;8.110;2023-11-21T01:10:12;10.80;99.90
7472;DHT22;3777;48.722;8.110;2023-11-21T01:12:41;10.80;99.90
7472;DHT22;3777;48.722;8.110;2023-11-21T01:15:08;10.80;99.90
7472;DHT22;3777;48.722;8.110;2023-11-21T01:17:37;10.70;99.90
7472;DHT22;3777;48.722;8.110;2023-11-21T01:20:06;10.70;99.90
7472;DHT22;3777;48.722;8.110;2023-11-21T01:22:37;10.70;99.90
7472;DHT22;3777;48.722;8.110;2023-11-21T01:25:04;10.70;99.90
7472;DHT22;3777;48.722;8.110;2023-11-21T01:27:33;10.60;99.90
7472;DHT22;3777;48.722;8.110;2023-11-21T01:30:01;10.70;99.90
7472;DHT22;3777;48.722;8.110;2023-11-21T01:32:28;10.60;99.90
7472;DHT22;3777;48.722;8.110;2023-11-21T01:34:55;10.60;99.90
7472;DHT22;3777;48.722;8.110;2023-11-21T01:37:22;10.70;99.90
7472;DHT22;3777;48.722;8.110;2023-11-21T01:39:50;10.60;99.90
7472;DHT22;3777;48.722;8.110;2023-11-21T01:42:17;10.70;99.90
7472;DHT22;3777;48.722;8.110;2023-11-21T01:44:44;10.70;99.90
7472;DHT22;3777;48.722;8.110;2023-11-21T01:47:13;10.60;99.90
7472;DHT22;3777;48.722;8.110;2023-11-21T01:49:43;10.60;99.90
7472;DHT22;3777;48.722;8.110;2023-11-21T01:52:11;10.60;99.90
7472;DHT22;3777;48.722;8.110;2023-11-21T01:54:39;10.70;99.90
7472;DHT22;3777;48.722;8.110;2023-11-21T01:57:08;10.80;99.90
7472;DHT22;3777;48.722;8.110;2023-11-21T01:59:36;10.90;99.90
7472;DHT22;3777;48.722;8.110;2023-11-21T02:02:03;11.00;99.90
7472;DHT22;3777;48.722;8.110;2023-11-21T02:04:33;11.00;99.90
7472;DHT22;3777;48.722;8.110;2023-11-21T02:07:00;11.00;99.90
7472;DHT22;3777;48.722;8.110;2023-11-21T02:09:28;11.10;99.90
7472;DHT22;3777;48.722;8.110;2023-11-21T02:11:55;11.10;99.90
7472;DHT22;3777;48.722;8.110;2023-11-21T02:14:24;11.20;99.90
7472;DHT22;3777;48.722;8.110;2023-11-21T02:16:53;11.20;99.90
7472;DHT22;3777;48.722;8.110;2023-11-21T02:19:22;11.20;99.90
7472;DHT22;3777;48.722;8.110;2023-11-21T02:21:51;11.30;99.90
7472;DHT22;3777;48.722;8.110;2023-11-21T02:24:20;11.30;99.90
7472;DHT22;3777;48.722;8.110;2023-11-21T02:26:48;11.30;99.90
7472;DHT22;3777;48.722;8.110;2023-11-21T02:29:17;11.30;99.90
7472;DHT22;3777;48.722;8.110;2023-11-21T02:31:47;11.40;99.90
7472;DHT22;3777;48.722;8.110;2023-11-21T02:34:15;11.40;99.90
7472;DHT22;3777;48.722;8.110;2023-11-21T02:36:42;11.30;99.90
7472;DHT22;3777;48.722;8.110;2023-11-21T02:39:10;11.30;99.90
7472;DHT22;3777;48.722;8.110;2023-11-21T02:41:39;11.40;99.90
7472;DHT22;3777;48.722;8.110;2023-11-21T02:44:06;11.40;99.90
7472;DHT22;3777;48.722;8.110;2023-11-21T02:46:33;11.40;99.90
7472;DHT22;3777;48.722;8.110;2023-11-21T02:49:00;11.40;99.90
7472;DHT22;3777;48.722;8.110;2023-11-21T02:51:27;11.50;99.90
7472;DHT22;3777;48.722;8.110;2023-11-21T02:53:54;11.40;99.90
7472;DHT22;3777;48.722;8.110;2023-11-21T02:56:24;11.40;99.90
7472;DHT22;3777;48.722;8.110;2023-11-21T02:58:55;11.30;99.90
7472;DHT22;3777;48.722;8.110;2023-11-21T03:01:23;11.30;99.90
7472;DHT22;3777;48.722;8.110;2023-11-21T03:03:50;11.30;99.90
7472;DHT22;3777;48.722;8.110;2023-11-21T03:06:18;11.30;99.90
7472;DHT22;3777;48.722;8.110;2023-11-21T03:08:45;11.40;99.90
7472;DHT22;3777;48.722;8.110;2023-11-21T03:11:12;11.30;99.90
7472;DHT22;3777;48.722;8.110;2023-11-21T03:13:39;11.20;99.90
7472;DHT22;3777;48.722;8.110;2023-11-21T03:16:09;11.10;99.90
7472;DHT22;3777;48.722;8.110;2023-11-21T03:18:36;11.00;99.90
7472;DHT22;3777;48.722;8.110;2023-11-21T03:21:03;10.90;99.90
7472;DHT22;3777;48.722;8.110;2023-11-21T03:23:31;10.80;99.90
7472;DHT22;3777;48.722;8.110;2023-11-21T03:25:58;10.60;99.90
7472;DHT22;3777;48.722;8.110;2023-11-21T03:28:25;10.50;99.90
7472;DHT22;3777;48.722;8.110;2023-11-21T03:30:52;10.60;99.90
7472;DHT22;3777;48.722;8.110;2023-11-21T03:33:20;10.70;99.90
7472;DHT22;3777;48.722;8.110;2023-11-21T03:35:48;10.80;99.90
7472;DHT22;3777;48.722;8.110;2023-11-21T03:38:15;10.90;99.90
7472;DHT22;3777;48.722;8.110;2023-11-21T03:40:42;10.80;99.90
7472;DHT22;3777;48.722;8.110;2023-11-21T03:43:09;10.90;99.90
7472;DHT22;3777;48.722;8.110;2023-11-21T03:45:36;11.00;99.90
7472;DHT22;3777;48.722;8.110;2023-11-21T03:48:06;11.10;99.90
7472;DHT22;3777;48.722;8.110;2023-11-21T03:50:34;11.10;99.90
7472;DHT22;3777;48.722;8.110;2023-11-21T03:53:01;11.00;99.90
7472;DHT22;3777;48.722;8.110;2023-11-21T03:55:29;11.00;99.90
7472;DHT22;3777;48.722;8.110;2023-11-21T03:57:57;10.90;99.90
7472;DHT22;3777;48.722;8.110;2023-11-21T04:00:24;10.70;99.90
7472;DHT22;3777;48.722;8.110;2023-11-21T04:02:52;10.70;99.90
7472;DHT22;3777;48.722;8.110;2023-11-21T04:05:20;10.70;99.90
7472;DHT22;3777;48.722;8.110;2023-11-21T04:07:48;10.70;99.90
7472;DHT22;3777;48.722;8.110;2023-11-21T04:10:15;10.60;99.90
7472;DHT22;3777;48.722;8.110;2023-11-21T04:12:42;10.60;99.90
7472;DHT22;3777;48.722;8.110;2023-11-21T04:15:11;10.50;99.90
7472;DHT22;3777;48.722;8.110;2023-11-21T04:17:38;10.50;99.90
7472;DHT22;3777;48.722;8.110;2023-11-21T04:20:06;10.50;99.90
7472;DHT22;3777;48.722;8.110;2023-11-21T04:22:36;10.50;99.90
7472;DHT22;3777;48.722;8.110;2023-11-21T04:25:06;10.50;99.90
7472;DHT22;3777;48.722;8.110;2023-11-21T04:27:33;10.40;99.90
7472;DHT22;3777;48.722;8.110;2023-11-21T04:30:00;10.40;99.90
7472;DHT22;3777;48.722;8.110;2023-11-21T04:32:27;10.40;99.90
7472;DHT22;3777;48.722;8.110;2023-11-21T04:34:54;10.30;99.90
7472;DHT22;3777;48.722;8.110;2023-11-21T04:37:20;10.40;99.90
7472;DHT22;3777;48.722;8.110;2023-11-21T04:39:48;10.50;99.90
7472;DHT22;3777;48.722;8.110;2023-11-21T04:42:16;10.40;99.90
7472;DHT22;3777;48.722;8.110;2023-11-21T04:44:43;10.40;99.90
7472;DHT22;3777;48.722;8.110;2023-11-21T04:47:10;10.50;99.90
7472;DHT22;3777;48.722;8.110;2023-11-21T04:49:39;10.50;99.90
7472;DHT22;3777;48.722;8.110;2023-11-21T04:52:06;10.40;99.90
7472;DHT22;3777;48.722;8.110;2023-11-21T04:54:35;10.50;99.90
7472;DHT22;3777;48.722;8.110;2023-11-21T04:57:02;10.50;99.90
7472;DHT22;3777;48.722;8.110;2023-11-21T04:59:30;10.50;99.90
7472;DHT22;3777;48.722;8.110;2023-11-21T05:01:57;10.50;99.90
7472;DHT22;3777;48.722;8.110;2023-11-21T05:04:28;10.40;99.90
7472;DHT22;3777;48.722;8.110;2023-11-21T05:06:55;10.30;99.90
7472;DHT22;3777;48.722;8.110;2023-11-21T05:09:22;10.40;99.90
7472;DHT22;3777;48.722;8.110;2023-11-21T05:11:49;10.40;99.90
7472;DHT22;3777;48.722;8.110;2023-11-21T05:14:16;10.30;99.90
7472;DHT22;3777;48.722;8.110;2023-11-21T05:16:45;10.30;99.90
7472;DHT22;3777;48.722;8.110;2023-11-21T05:19:13;10.40;99.90
7472;DHT22;3777;48.722;8.110;2023-11-21T05:21:39;10.50;99.90
7472;DHT22;3777;48.722;8.110;2023-11-21T05:24:07;10.60;99.90
7472;DHT22;3777;48.722;8.110;2023-11-21T05:26:35;10.60;99.90
7472;DHT22;3777;48.722;8.110;2023-11-21T05:29:02;10.60;99.90
7472;DHT22;3777;48.722;8.110;2023-11-21T05:31:29;10.60;99.90
7472;DHT22;3777;48.722;8.110;2023-11-21T05:33:57;10.50;99.90
7472;DHT22;3777;48.722;8.110;2023-11-21T05:36:24;10.50;99.90
7472;DHT22;3777;48.722;8.110;2023-11-21T05:38:51;10.40;99.90
7472;DHT22;3777;48.722;8.110;2023-11-21T05:41:18;10.40;99.90
7472;DHT22;3777;48.722;8.110;2023-11-21T05:43:47;10.30;99.90
7472;DHT22;3777;48.722;8.110;2023-11-21T05:46:14;10.20;99.90
7472;DHT22;3777;48.722;8.110;2023-11-21T05:48:42;10.20;99.90
7472;DHT22;3777;48.722;8.110;2023-11-21T05:51:10;10.20;99.90
7472;DHT22;3777;48.722;8.110;2023-11-21T05:53:38;10.10;99.90
7472;DHT22;3777;48.722;8.110;2023-11-21T05:56:05;10.10;99.90
7472;DHT22;3777;48.722;8.110;2023-11-21T05:58:33;10.00;99.90
7472;DHT22;3777;48.722;8.110;2023-11-21T06:01:00;9.90;99.90
7472;DHT22;3777;48.722;8.110;2023-11-21T06:03:27;10.00;99.90
7472;DHT22;3777;48.722;8.110;2023-11-21T06:05:54;10.00;99.90
7472;DHT22;3777;48.722;8.110;2023-11-21T06:08:22;9.90;99.90
7472;DHT22;3777;48.722;8.110;2023-11-21T06:10:50;9.80;99.90
7472;DHT22;3777;48.722;8.110;2023-11-21T06:13:17;9.90;99.90
7472;DHT22;3777;48.722;8.110;2023-11-21T06:15:46;10.00;99.90
7472;DHT22;3777;48.722;8.110;2023-11-21T06:18:13;10.10;99.90
7472;DHT22;3777;48.722;8.110;2023-11-21T06:20:40;10.20;99.90
7472;DHT22;3777;48.722;8.110;2023-11-21T06:23:07;10.20;99.90
7472;DHT22;3777;48.722;8.110;2023-11-21T06:25:36;10.30;99.90
7472;DHT22;3777;48.722;8.110;2023-11-21T06:28:03;10.20;99.90
7472;DHT22;3777;48.722;8.110;2023-11-21T06:30:30;10.10;99.90
7472;DHT22;3777;48.722;8.110;2023-11-21T06:32:57;10.10;99.90
7472;DHT22;3777;48.722;8.110;2023-11-21T06:35:25;10.20;99.90
7472;DHT22;3777;48.722;8.110;2023-11-21T06:37:53;10.20;99.90
7472;DHT22;3777;48.722;8.110;2023-11-21T06:40:20;10.20;99.90
7472;DHT22;3777;48.722;8.110;2023-11-21T06:42:48;10.20;99.90
7472;DHT22;3777;48.722;8.110;2023-11-21T06:45:16;10.10;99.90
7472;DHT22;3777;48.722;8.110;2023-11-21T06:47:43;10.10;99.90
7472;DHT22;3777;48.722;8.110;2023-11-21T06:50:10;10.10;99.90
7472;DHT22;3777;48.722;8.110;2023-11-21T06:52:37;10.20;99.90
7472;DHT22;3777;48.722;8.110;2023-11-21T06:55:05;10.30;99.90
7472;DHT22;3777;48.722;8.110;2023-11-21T06:57:33;10.30;99.90
7472;DHT22;3777;48.722;8.110;2023-11-21T07:00:02;10.30;99.90
7472;DHT22;3777;48.722;8.110;2023-11-21T07:02:31;10.20;99.90
7472;DHT22;3777;48.722;8.110;2023-11-21T07:04:58;10.20;99.90
7472;DHT22;3777;48.722;8.110;2023-11-21T07:07:25;10.10;99.90
7472;DHT22;3777;48.722;8.110;2023-11-21T07:09:52;10.10;99.90
7472;DHT22;3777;48.722;8.110;2023-11-21T07:12:19;10.10;99.90
7472;DHT22;3777;48.722;8.110;2023-11-21T07:14:49;10.00;99.90
7472;DHT22;3777;48.722;8.110;2023-11-21T07:17:17;10.00;99.90
7472;DHT22;3777;48.722;8.110;2023-11-21T07:19:44;10.00;99.90
7472;DHT22;3777;48.722;8.110;2023-11-21T07:22:11;10.20;99.90
7472;DHT22;3777;48.722;8.110;2023-11-21T07:24:39;10.30;99.90
7472;DHT22;3777;48.722;8.110;2023-11-21T07:27:06;10.30;99.90
7472;DHT22;3777;48.722;8.110;2023-11-21T07:29:33;10.40;99.90
7472;DHT22;3777;48.722;8.110;2023-11-21T07:32:00;10.40;99.90
7472;DHT22;3777;48.722;8.110;2023-11-21T07:34:28;10.40;99.90
7472;DHT22;3777;48.722;8.110;2023-11-21T07:36:55;10.30;99.90
7472;DHT22;3777;48.722;8.110;2023-11-21T07:39:22;10.30;99.90
7472;DHT22;3777;48.722;8.110;2023-11-21T07:41:49;10.30;99.90
7472;DHT22;3777;48.722;8.110;2023-11-21T07:44:16;10.40;99.90
7472;DHT22;3777;48.722;8.110;2023-11-21T07:46:45;10.40;99.90
7472;DHT22;3777;48.722;8.110;2023-11-21T07:49:12;10.30;99.90
7472;DHT22;3777;48.722;8.110;2023-11-21T07:51:43;10.40;99.90
7472;DHT22;3777;48.722;8.110;2023-11-21T07:54:10;10.30;99.90
7472;DHT22;3777;48.722;8.110;2023-11-21T07:56:37;10.10;99.90
7472;DHT22;3777;48.722;8.110;2023-11-21T07:59:04;10.00;99.90
7472;DHT22;3777;48.722;8.110;2023-11-21T08:01:31;10.00;99.90
7472;DHT22;3777;48.722;8.110;2023-11-21T08:03:58;9.90;99.90
7472;DHT22;3777;48.722;8.110;2023-11-21T08:06:29;9.90;99.90
7472;DHT22;3777;48.722;8.110;2023-11-21T08:08:57;9.80;99.90
7472;DHT22;3777;48.722;8.110;2023-11-21T08:11:25;9.80;99.90
7472;DHT22;3777;48.722;8.110;2023-11-21T08:13:54;9.70;99.90
7472;DHT22;3777;48.722;8.110;2023-11-21T08:16:22;9.80;99.90
7472;DHT22;3777;48.722;8.110;2023-11-21T08:18:49;10.00;99.90
7472;DHT22;3777;48.722;8.110;2023-11-21T08:21:16;10.10;99.90
7472;DHT22;3777;48.722;8.110;2023-11-21T08:23:44;10.30;99.90
7472;DHT22;3777;48.722;8.110;2023-11-21T08:26:15;10.40;99.90
7472;DHT22;3777;48.722;8.110;2023-11-21T08:28:42;10.50;99.90
7472;DHT22;3777;48.722;8.110;2023-11-21T08:31:09;10.50;99.90
7472;DHT22;3777;48.722;8.110;2023-11-21T08:33:36;10.50;99.90
7472;DHT22;3777;48.722;8.110;2023-11-21T08:36:07;10.50;99.90
7472;DHT22;3777;48.722;8.110;2023-11-21T08:38:34;10.50;99.90
7472;DHT22;3777;48.722;8.110;2023-11-21T08:41:04;10.40;99.90
7472;DHT22;3777;48.722;8.110;2023-11-21T08:43:34;10.30;99.90
7472;DHT22;3777;48.722;8.110;2023-11-21T08:46:05;10.30;99.90
7472;DHT22;3777;48.722;8.110;2023-11-21T08:48:32;10.30;99.90
7472;DHT22;3777;48.722;8.110;2023-11-21T08:50:59;10.30;99.90
7472;DHT22;3777;48.722;8.110;2023-11-21T08:53:26;10.40;99.90
7472;DHT22;3777;48.722;8.110;2023-11-21T08:55:53;10.50;99.90
7472;DHT22;3777;48.722;8.110;2023-11-21T08:58:20;10.50;99.90
7472;DHT22;3777;48.722;8.110;2023-11-21T09:00:49;10.50;99.90
7472;DHT22;3777;48.722;8.110;2023-11-21T09:03:16;10.50;99.90
7472;DHT22;3777;48.722;8.110;2023-11-21T09:05:42;10.70;99.90
7472;DHT22;3777;48.722;8.110;2023-11-21T09:08:10;10.70;99.90
7472;DHT22;3777;48.722;8.110;2023-11-21T09:10:37;10.70;99.90
7472;DHT22;3777;48.722;8.110;2023-11-21T09:13:05;10.70;99.90
7472;DHT22;3777;48.722;8.110;2023-11-21T09:15:35;10.70;99.90
7472;DHT22;3777;48.722;8.110;2023-11-21T09:18:04;10.80;99.90
7472;DHT22;3777;48.722;8.110;2023-11-21T09:20:31;10.80;99.90
7472;DHT22;3777;48.722;8.110;2023-11-21T09:22:58;10.90;99.90
7472;DHT22;3777;48.722;8.110;2023-11-21T09:25:25;10.90;99.90
7472;DHT22;3777;48.722;8.110;2023-11-21T09:27:54;11.10;99.90
7472;DHT22;3777;48.722;8.110;2023-11-21T09:30:22;11.10;99.90
7472;DHT22;3777;48.722;8.110;2023-11-21T09:32:50;11.10;99.90
7472;DHT22;3777;48.722;8.110;2023-11-21T09:35:18;11.20;99.90
7472;DHT22;3777;48.722;8.110;2023-11-21T09:37:45;11.20;99.90
7472;DHT22;3777;48.722;8.110;2023-11-21T09:40:13;11.20;99.90
7472;DHT22;3777;48.722;8.110;2023-11-21T09:42:49;11.20;99.90
7472;DHT22;3777;48.722;8.110;2023-11-21T09:45:24;10.90;99.90
7472;DHT22;3777;48.722;8.110;2023-11-21T09:47:52;10.80;99.90
7472;DHT22;3777;48.722;8.110;2023-11-21T09:50:25;10.80;99.90
7472;DHT22;3777;48.722;8.110;2023-11-21T09:52:57;10.90;99.90
7472;DHT22;3777;48.722;8.110;2023-11-21T09:55:27;11.00;99.90
7472;DHT22;3777;48.722;8.110;2023-11-21T09:57:56;11.00;99.90
7472;DHT22;3777;48.722;8.110;2023-11-21T10:00:24;10.90;99.90
7472;DHT22;3777;48.722;8.110;2023-11-21T10:02:52;11.00;99.90
7472;DHT22;3777;48.722;8.110;2023-11-21T10:05:19;11.10;99.90
7472;DHT22;3777;48.722;8.110;2023-11-21T10:07:50;11.20;99.90
7472;DHT22;3777;48.722;8.110;2023-11-21T10:10:19;11.40;99.90
7472;DHT22;3777;48.722;8.110;2023-11-21T10:12:49;11.50;99.90
7472;DHT22;3777;48.722;8.110;2023-11-21T10:15:21;11.60;99.90
7472;DHT22;3777;48.722;8.110;2023-11-21T10:17:49;11.60;99.90
7472;DHT22;3777;48.722;8.110;2023-11-21T10:20:19;11.70;99.90
7472;DHT22;3777;48.722;8.110;2023-11-21T10:22:46;11.70;99.90
7472;DHT22;3777;48.722;8.110;2023-11-21T10:25:15;11.80;99.90
7472;DHT22;3777;48.722;8.110;2023-11-21T10:27:47;11.90;99.90
7472;DHT22;3777;48.722;8.110;2023-11-21T10:30:16;11.90;99.90
7472;DHT22;3777;48.722;8.110;2023-11-21T10:32:44;11.90;99.90
7472;DHT22;3777;48.722;8.110;2023-11-21T10:35:12;12.00;99.90
7472;DHT22;3777;48.722;8.110;2023-11-21T10:37:39;12.00;99.90
7472;DHT22;3777;48.722;8.110;2023-11-21T10:40:07;12.00;99.90
7472;DHT22;3777;48.722;8.110;2023-11-21T10:42:38;12.00;99.90
7472;DHT22;3777;48.722;8.110;2023-11-21T10:45:08;12.10;99.90
7472;DHT22;3777;48.722;8.110;2023-11-21T10:47:39;12.10;99.90
7472;DHT22;3777;48.722;8.110;2023-11-21T10:50:06;12.20;99.90
7472;DHT22;3777;48.722;8.110;2023-11-21T10:52:36;12.20;99.90
7472;DHT22;3777;48.722;8.110;2023-11-21T10:55:16;12.30;99.90
7472;DHT22;3777;48.722;8.110;2023-11-21T10:57:46;12.30;99.90
7472;DHT22;3777;48.722;8.110;2023-11-21T11:00:16;12.20;99.90
7472;DHT22;3777;48.722;8.110;2023-11-21T11:02:47;12.20;99.90
7472;DHT22;3777;48.722;8.110;2023-11-21T11:05:16;12.30;99.90
7472;DHT22;3777;48.722;8.110;2023-11-21T11:07:44;12.30;99.90
7472;DHT22;3777;48.722;8.110;2023-11-21T11:10:14;12.30;99.90
7472;DHT22;3777;48.722;8.110;2023-11-21T11:12:42;12.40;99.90
7472;DHT22;3777;48.722;8.110;2023-11-21T11:15:10;12.40;99.90
7472;DHT22;3777;48.722;8.110;2023-11-21T11:17:38;12.50;99.90
7472;DHT22;3777;48.722;8.110;2023-11-21T11:20:07;12.50;99.90
7472;DHT22;3777;48.722;8.110;2023-11-21T11:22:39;12.60;99.90
7472;DHT22;3777;48.722;8.110;2023-11-21T11:28:04;12.70;99.90
7472;DHT22;3777;48.722;8.110;2023-11-21T11:30:44;12.70;99.90
7472;DHT22;3777;48.722;8.110;2023-11-21T11:33:22;12.80;99.90
7472;DHT22;3777;48.722;8.110;2023-11-21T11:35:56;12.90;99.90
7472;DHT22;3777;48.722;8.110;2023-11-21T11:38:24;12.90;99.90
7472;DHT22;3777;48.722;8.110;2023-11-21T11:40:54;13.00;99.90
7472;DHT22;3777;48.722;8.110;2023-11-21T11:43:30;12.90;99.90
7472;DHT22;3777;48.722;8.110;2023-11-21T11:46:02;12.90;99.90
7472;DHT22;3777;48.722;8.110;2023-11-21T11:48:30;13.00;99.90
7472;DHT22;3777;48.722;8.110;2023-11-21T11:51:02;13.00;99.90
7472;DHT22;3777;48.722;8.110;2023-11-21T11:53:35;13.00;99.90
7472;DHT22;3777;48.722;8.110;2023-11-21T11:56:22;13.00;99.90
7472;DHT22;3777;48.722;8.110;2023-11-21T11:58:52;13.00;99.90
7472;DHT22;3777;48.722;8.110;2023-11-21T12:01:21;13.00;99.90
7472;DHT22;3777;48.722;8.110;2023-11-21T12:06:51;13.10;99.90
7472;DHT22;3777;48.722;8.110;2023-11-21T12:09:19;13.10;99.90
7472;DHT22;3777;48.722;8.110;2023-11-21T12:11:50;13.00;99.90
7472;DHT22;3777;48.722;8.110;2023-11-21T12:14:17;13.00;99.90
7472;DHT22;3777;48.722;8.110;2023-11-21T12:16:45;13.00;99.90
7472;DHT22;3777;48.722;8.110;2023-11-21T12:19:13;13.00;99.90
7472;DHT22;3777;48.722;8.110;2023-11-21T12:21:41;13.00;99.90
7472;DHT22;3777;48.722;8.110;2023-11-21T12:24:09;13.00;99.90
7472;DHT22;3777;48.722;8.110;2023-11-21T12:26:39;12.90;99.90
7472;DHT22;3777;48.722;8.110;2023-11-21T12:29:06;12.80;99.90
7472;DHT22;3777;48.722;8.110;2023-11-21T12:31:34;12.70;99.90
7472;DHT22;3777;48.722;8.110;2023-11-21T12:34:04;12.50;99.90
7472;DHT22;3777;48.722;8.110;2023-11-21T12:36:32;12.40;99.90
7472;DHT22;3777;48.722;8.110;2023-11-21T12:39:00;12.30;99.90
7472;DHT22;3777;48.722;8.110;2023-11-21T12:41:28;12.20;99.90
7472;DHT22;3777;48.722;8.110;2023-11-21T12:43:57;12.10;99.90
7472;DHT22;3777;48.722;8.110;2023-11-21T12:46:24;12.10;99.90
7472;DHT22;3777;48.722;8.110;2023-11-21T12:48:55;12.00;99.90
7472;DHT22;3777;48.722;8.110;2023-11-21T12:51:23;12.00;99.90
7472;DHT22;3777;48.722;8.110;2023-11-21T12:53:51;12.00;99.90
7472;DHT22;3777;48.722;8.110;2023-11-21T12:56:21;12.00;99.90
7472;DHT22;3777;48.722;8.110;2023-11-21T12:58:49;12.00;99.90
7472;DHT22;3777;48.722;8.110;2023-11-21T13:01:17;12.00;99.90
7472;DHT22;3777;48.722;8.110;2023-11-21T13:03:47;12.00;99.90
7472;DHT22;3777;48.722;8.110;2023-11-21T13:06:18;12.00;99.90
7472;DHT22;3777;48.722;8.110;2023-11-21T13:08:48;12.10;99.90
7472;DHT22;3777;48.722;8.110;2023-11-21T13:11:15;12.20;99.90
7472;DHT22;3777;48.722;8.110;2023-11-21T13:13:43;12.20;99.90
7472;DHT22;3777;48.722;8.110;2023-11-21T13:16:10;12.20;99.90
7472;DHT22;3777;48.722;8.110;2023-11-21T13:18:38;12.20;99.90
7472;DHT22;3777;48.722;8.110;2023-11-21T13:21:08;12.20;99.90
7472;DHT22;3777;48.722;8.110;2023-11-21T13:23:39;12.20;99.90
7472;DHT22;3777;48.722;8.110;2023-11-21T13:26:08;12.30;99.90
7472;DHT22;3777;48.722;8.110;2023-11-21T13:28:36;12.20;99.90
7472;DHT22;3777;48.722;8.110;2023-11-21T13:31:04;12.30;99.90
7472;DHT22;3777;48.722;8.110;2023-11-21T13:33:46;12.30;99.90
7472;DHT22;3777;48.722;8.110;2023-11-21T13:36:17;12.20;99.90
7472;DHT22;3777;48.722;8.110;2023-11-21T13:38:48;12.10;99.90
7472;DHT22;3777;48.722;8.110;2023-11-21T13:41:17;12.10;99.90
7472;DHT22;3777;48.722;8.110;2023-11-21T13:43:44;12.00;99.90
7472;DHT22;3777;48.722;8.110;2023-11-21T13:46:18;12.00;99.90
7472;DHT22;3777;48.722;8.110;2023-11-21T13:48:47;11.90;99.90
7472;DHT22;3777;48.722;8.110;2023-11-21T13:51:16;11.90;99.90
7472;DHT22;3777;48.722;8.110;2023-11-21T13:53:44;11.80;99.90
7472;DHT22;3777;48.722;8.110;2023-11-21T13:56:13;11.80;99.90
7472;DHT22;3777;48.722;8.110;2023-11-21T13:58:46;11.80;99.90
7472;DHT22;3777;48.722;8.110;2023-11-21T14:01:17;11.80;99.90
7472;DHT22;3777;48.722;8.110;2023-11-21T14:04:07;11.90;99.90
7472;DHT22;3777;48.722;8.110;2023-11-21T14:06:45;11.90;99.90
7472;DHT22;3777;48.722;8.110;2023-11-21T14:09:14;12.00;99.90
7472;DHT22;3777;48.722;8.110;2023-11-21T14:11:49;12.10;99.90
7472;DHT22;3777;48.722;8.110;2023-11-21T14:14:18;12.10;99.90
7472;DHT22;3777;48.722;8.110;2023-11-21T14:16:45;12.20;99.90
7472;DHT22;3777;48.722;8.110;2023-11-21T14:19:13;12.20;99.90
7472;DHT22;3777;48.722;8.110;2023-11-21T14:21:43;12.20;99.90
7472;DHT22;3777;48.722;8.110;2023-11-21T14:24:11;12.30;99.90
7472;DHT22;3777;48.722;8.110;2023-11-21T14:26:40;12.30;99.90
7472;DHT22;3777;48.722;8.110;2023-11-21T14:29:08;12.30;99.90
7472;DHT22;3777;48.722;8.110;2023-11-21T14:31:39;12.40;99.90
7472;DHT22;3777;48.722;8.110;2023-11-21T14:34:06;12.40;99.90
7472;DHT22;3777;48.722;8.110;2023-11-21T14:36:33;12.40;99.90
7472;DHT22;3777;48.722;8.110;2023-11-21T14:39:00;12.40;99.90
7472;DHT22;3777;48.722;8.110;2023-11-21T14:41:27;12.40;99.90
7472;DHT22;3777;48.722;8.110;2023-11-21T14:43:54;12.40;99.90
7472;DHT22;3777;48.722;8.110;2023-11-21T14:46:23;12.30;99.90
7472;DHT22;3777;48.722;8.110;2023-11-21T14:48:52;12.30;99.90
7472;DHT22;3777;48.722;8.110;2023-11-21T14:51:33;12.30;99.90
7472;DHT22;3777;48.722;8.110;2023-11-21T14:54:12;12.30;99.90
7472;DHT22;3777;48.722;8.110;2023-11-21T14:56:39;12.30;99.90
7472;DHT22;3777;48.722;8.110;2023-11-21T14:59:08;12.30;99.90
7472;DHT22;3777;48.722;8.110;2023-11-21T15:01:41;12.30;99.90
7472;DHT22;3777;48.722;8.110;2023-11-21T15:04:13;12.30;99.90
7472;DHT22;3777;48.722;8.110;2023-11-21T15:07:00;12.30;99.90
7472;DHT22;3777;48.722;8.110;2023-11-21T15:09:26;12.20;99.90
7472;DHT22;3777;48.722;8.110;2023-11-21T15:12:07;12.20;99.90
7472;DHT22;3777;48.722;8.110;2023-11-21T15:14:42;12.20;99.90
7472;DHT22;3777;48.722;8.110;2023-11-21T15:17:11;12.20;99.90
7472;DHT22;3777;48.722;8.110;2023-11-21T15:19:42;12.20;99.90
7472;DHT22;3777;48.722;8.110;2023-11-21T15:22:10;12.20;99.90
7472;DHT22;3777;48.722;8.110;2023-11-21T15:24:40;12.20;99.90
7472;DHT22;3777;48.722;8.110;2023-11-21T15:27:10;12.20;99.90
7472;DHT22;3777;48.722;8.110;2023-11-21T15:29:38;12.10;99.90
7472;DHT22;3777;48.722;8.110;2023-11-21T15:32:05;12.10;99.90
7472;DHT22;3777;48.722;8.110;2023-11-21T15:34:33;12.00;99.90
7472;DHT22;3777;48.722;8.110;2023-11-21T15:37:02;12.00;99.90
7472;DHT22;3777;48.722;8.110;2023-11-21T15:39:30;12.00;99.90
7472;DHT22;3777;48.722;8.110;2023-11-21T15:41:58;11.90;99.90
7472;DHT22;3777;48.722;8.110;2023-11-21T15:44:25;11.90;99.90
7472;DHT22;3777;48.722;8.110;2023-11-21T15:46:52;11.80;99.90
7472;DHT22;3777;48.722;8.110;2023-11-21T15:49:19;11.80;99.90
7472;DHT22;3777;48.722;8.110;2023-11-21T15:51:48;11.70;99.90
7472;DHT22;3777;48.722;8.110;2023-11-21T15:54:21;11.70;99.90
7472;DHT22;3777;48.722;8.110;2023-11-21T15:56:50;11.60;99.90
7472;DHT22;3777;48.722;8.110;2023-11-21T15:59:17;11.60;99.90
7472;DHT22;3777;48.722;8.110;2023-11-21T16:01:45;11.60;99.90
7472;DHT22;3777;48.722;8.110;2023-11-21T16:04:14;11.50;99.90
7472;DHT22;3777;48.722;8.110;2023-11-21T16:06:42;11.60;99.90
7472;DHT22;3777;48.722;8.110;2023-11-21T16:09:11;11.50;99.90
7472;DHT22;3777;48.722;8.110;2023-11-21T16:11:49;11.50;99.90
7472;DHT22;3777;48.722;8.110;2023-11-21T16:14:18;11.50;99.90
7472;DHT22;3777;48.722;8.110;2023-11-21T16:16:51;11.40;99.90